^^
Station Historical Data
Daily Summary for February 15, 2018 Units:  English    Metric   Both
« Previous Day
Next Day »
Daily Weekly Monthly Yearly Custom
  High: Low: Average:
Temperature: TemperatureF °F 21.9 °F 38.8 °F
Dew Point: DewpointF °F 11.4 °F 19.7 °F
Humidity: Humidity% 30% 47%
Wind Speed: WindSpeedMPHmph 0.0mph 7.8mph
Wind Gust: WindSpeedGustMPHmph - -
Wind- - SSW
Pressure: PressureIn in 29.52 in -
Precipitation: 0.00 in    
Historical Graphs
 
 
Tabular Data for February 15, 2018
Time Temperature Dew Point Pressure Wind Wind Speed Wind Gust Humidity Rainfall Rate (Hourly) solar Conditions
TemperatureF °F DewpointF °F PressureIn in Calm     Humidity% HourlyPrecipIn in SoftwareType W/m2 Conditions
00:03 45.5 °F 23.1 °F 29.55 in West 3.5 mph 3.5 mph 41% 0.00 in WeatherDisplay:10.37 W/m2 CLR
00:08 45.8 °F 23.4 °F 29.56 in West 3.5 mph 3.5 mph 41% 0.00 in WeatherDisplay:10.37 W/m2 CLR
00:13 46.1 °F 23.7 °F 29.56 in West 3.5 mph 3.5 mph 41% 0.00 in WeatherDisplay:10.37 W/m2 CLR
00:18 46.3 °F 23.9 °F 29.56 in SW 5.8 mph 5.8 mph 41% 0.00 in WeatherDisplay:10.37 W/m2 CLR
00:23 46.3 °F 24.4 °F 29.55 in WNW 3.5 mph 3.5 mph 42% 0.00 in WeatherDisplay:10.37 W/m2 CLR
00:28 46.3 °F 24.4 °F 29.55 in West 3.5 mph 3.5 mph 42% 0.00 in WeatherDisplay:10.37 W/m2 CLR
00:33 46.4 °F 24.5 °F 29.54 in WSW 5.8 mph 5.8 mph 42% 0.00 in WeatherDisplay:10.37 W/m2 CLR
00:38 46.3 °F 24.4 °F 29.53 in West 1.2 mph 1.2 mph 42% 0.00 in WeatherDisplay:10.37 W/m2 CLR
00:43 45.8 °F 24.5 °F 29.53 in West 3.5 mph 3.5 mph 43% 0.00 in WeatherDisplay:10.37 W/m2 CLR
00:48 45.2 °F 24.0 °F 29.53 in West 6.9 mph 6.9 mph 43% 0.00 in WeatherDisplay:10.37 W/m2 CLR
00:53 44.9 °F 24.3 °F 29.53 in West 3.5 mph 3.5 mph 44% 0.00 in WeatherDisplay:10.37 W/m2 CLR
00:58 44.6 °F 24.0 °F 29.52 in West 3.5 mph 3.5 mph 44% 0.00 in WeatherDisplay:10.37 W/m2 CLR
01:03 44.5 °F 23.9 °F 29.52 in West 6.9 mph 6.9 mph 44% 0.00 in WeatherDisplay:10.37 W/m2 CLR
01:08 44.6 °F 24.0 °F 29.52 in SW 2.3 mph 2.3 mph 44% 0.00 in WeatherDisplay:10.37 W/m2 CLR
01:13 44.4 °F 24.4 °F 29.54 in South 5.8 mph 5.8 mph 45% 0.00 in WeatherDisplay:10.37 W/m2 CLR
01:18 44.1 °F 24.1 °F 29.54 in WNW 3.5 mph 3.5 mph 45% 0.00 in WeatherDisplay:10.37 W/m2 CLR
01:23 44.0 °F 23.5 °F 29.54 in SW 8.1 mph 8.1 mph 44% 0.00 in WeatherDisplay:10.37 W/m2 CLR
01:28 44.2 °F 23.6 °F 29.54 in West 9.2 mph 9.2 mph 44% 0.00 in WeatherDisplay:10.37 W/m2 CLR
01:33 44.6 °F 23.5 °F 29.52 in West 2.3 mph 2.3 mph 43% 0.00 in WeatherDisplay:10.37 W/m2 CLR
01:38 45.0 °F 23.3 °F 29.53 in West 4.6 mph 4.6 mph 42% 0.00 in WeatherDisplay:10.37 W/m2 CLR
01:43 45.0 °F 23.8 °F 29.53 in WSW 4.6 mph 4.6 mph 43% 0.00 in WeatherDisplay:10.37 W/m2 CLR
01:48 44.9 °F 23.7 °F 29.54 in West 1.2 mph 1.2 mph 43% 0.00 in WeatherDisplay:10.37 W/m2 CLR
01:53 44.8 °F 23.6 °F 29.54 in WNW 3.5 mph 3.5 mph 43% 0.00 in WeatherDisplay:10.37 W/m2 CLR
01:58 44.5 °F 23.4 °F 29.53 in West 1.2 mph   43% 0.00 in WeatherDisplay:10.37 W/m2 CLR
02:03 44.1 °F 23.0 °F 29.55 in West 3.5 mph 3.5 mph 43% 0.00 in WeatherDisplay:10.37 W/m2 CLR
02:08 44.1 °F 23.0 °F 29.55 in West 3.5 mph 3.5 mph 43% 0.00 in WeatherDisplay:10.37 W/m2 CLR
02:13 44.4 °F 23.3 °F 29.56 in West 2.3 mph 2.3 mph 43% 0.00 in WeatherDisplay:10.37 W/m2 CLR
02:18 44.6 °F 23.5 °F 29.56 in West 3.5 mph 3.5 mph 43% 0.00 in WeatherDisplay:10.37 W/m2 CLR
02:23 44.6 °F 23.5 °F 29.56 in West 1.2 mph   43% 0.00 in WeatherDisplay:10.37 W/m2 CLR
02:28 44.5 °F 23.4 °F 29.56 in WSW 2.3 mph 2.3 mph 43% 0.00 in WeatherDisplay:10.37 W/m2 CLR
02:33 44.7 °F 23.5 °F 29.56 in West 3.5 mph 3.5 mph 43% 0.00 in WeatherDisplay:10.37 W/m2 CLR
02:38 44.8 °F 24.2 °F 29.56 in West 3.5 mph 3.5 mph 44% 0.00 in WeatherDisplay:10.37 W/m2 CLR
02:43 44.6 °F 24.5 °F 29.58 in NW 6.9 mph 6.9 mph 45% 0.00 in WeatherDisplay:10.37 W/m2 CLR
02:48 43.5 °F 26.1 °F 29.58 in NNW 10.4 mph 10.4 mph 50% 0.00 in WeatherDisplay:10.37 W/m2 CLR
02:53 42.2 °F 25.8 °F 29.60 in NNE 10.4 mph 10.4 mph 52% 0.00 in WeatherDisplay:10.37 W/m2 CLR
02:58 40.8 °F 26.3 °F 29.61 in North 4.6 mph 4.6 mph 56% 0.00 in WeatherDisplay:10.37 W/m2 CLR
03:03 39.8 °F 26.6 °F 29.63 in NNW 4.0 mph 4.0 mph 59% 0.00 in WeatherDisplay:10.37 W/m2 CLR
03:08 39.2 °F 26.9 °F 29.62 in North 12.7 mph 12.7 mph 61% 0.00 in WeatherDisplay:10.37 W/m2 CLR
03:13 38.9 °F 27.0 °F 29.63 in NNW 7.0 mph 7.0 mph 62% 0.00 in WeatherDisplay:10.37 W/m2 CLR
03:19 38.7 °F 27.6 °F 29.62 in NNW 11.5 mph 11.5 mph 64% 0.00 in WeatherDisplay:10.37 W/m2 CLR
03:24 38.4 °F 27.3 °F 29.64 in NNW 3.5 mph 3.5 mph 64% 0.00 in WeatherDisplay:10.37 W/m2 CLR
03:29 38.1 °F 27.4 °F 29.64 in North 3.5 mph 3.5 mph 65% 0.00 in WeatherDisplay:10.37 W/m2 CLR
03:34 37.9 °F 27.2 °F 29.64 in North 5.0 mph 5.0 mph 65% 0.00 in WeatherDisplay:10.37 W/m2 CLR
03:39 37.8 °F 26.7 °F 29.64 in NNW 5.0 mph 5.0 mph 64% 0.00 in WeatherDisplay:10.37 W/m2 CLR
03:44 37.9 °F 26.8 °F 29.64 in WNW 6.9 mph 6.9 mph 64% 0.00 in WeatherDisplay:10.37 W/m2 CLR
03:49 37.9 °F 26.4 °F 29.64 in NNW 5.8 mph 5.8 mph 63% 0.00 in WeatherDisplay:10.37 W/m2 CLR
03:54 38.0 °F 26.1 °F 29.64 in North 5.8 mph 5.8 mph 62% 0.00 in WeatherDisplay:10.37 W/m2 CLR
03:59 38.1 °F 25.8 °F 29.64 in NNW 11.5 mph 11.5 mph 61% 0.00 in WeatherDisplay:10.37 W/m2 CLR
04:04 38.2 °F 25.5 °F 29.65 in North 6.9 mph 6.9 mph 60% 0.00 in WeatherDisplay:10.37 W/m2 CLR
04:09 38.4 °F 24.9 °F 29.65 in North 10.4 mph 10.4 mph 58% 0.00 in WeatherDisplay:10.37 W/m2 CLR
04:14 38.6 °F 25.1 °F 29.65 in NNW 6.9 mph 6.9 mph 58% 0.00 in WeatherDisplay:10.37 W/m2 CLR
04:19 38.5 °F 24.6 °F 29.65 in West 8.1 mph 8.1 mph 57% 0.00 in WeatherDisplay:10.37 W/m2 CLR
04:24 38.4 °F 24.5 °F 29.65 in NW 2.3 mph 2.3 mph 57% 0.00 in WeatherDisplay:10.37 W/m2 CLR
04:29 38.3 °F 24.4 °F 29.65 in North 11.5 mph 11.5 mph 57% 0.00 in WeatherDisplay:10.37 W/m2 CLR
04:34 38.3 °F 24.4 °F 29.65 in North 6.9 mph 6.9 mph 57% 0.00 in WeatherDisplay:10.37 W/m2 CLR
04:39 38.2 °F 24.3 °F 29.65 in NNW 5.8 mph 5.8 mph 57% 0.00 in WeatherDisplay:10.37 W/m2 CLR
04:44 38.2 °F 24.7 °F 29.65 in North 3.5 mph 3.5 mph 58% 0.00 in WeatherDisplay:10.37 W/m2 CLR
04:49 38.1 °F 24.6 °F 29.65 in NNW 5.8 mph 5.8 mph 58% 0.00 in WeatherDisplay:10.37 W/m2 CLR
04:54 38.0 °F 24.9 °F 29.65 in North 5.8 mph 5.8 mph 59% 0.00 in WeatherDisplay:10.37 W/m2 CLR
04:59 37.9 °F 24.8 °F 29.64 in NNW 10.4 mph 10.4 mph 59% 0.00 in WeatherDisplay:10.37 W/m2 CLR
05:04 37.7 °F 25.1 °F 29.67 in NNW 7.0 mph 7.0 mph 60% 0.00 in WeatherDisplay:10.37 W/m2 CLR
05:09 37.6 °F 25.4 °F 29.67 in NNW 3.5 mph 3.5 mph 61% 0.00 in WeatherDisplay:10.37 W/m2 CLR
05:14 37.6 °F 25.7 °F 29.67 in NNE 11.5 mph 11.5 mph 62% 0.00 in WeatherDisplay:10.37 W/m2 CLR
05:19 37.6 °F 25.4 °F 29.68 in North 3.5 mph 3.5 mph 61% 0.00 in WeatherDisplay:10.37 W/m2 CLR
05:24 37.5 °F 24.9 °F 29.68 in North 5.0 mph 5.0 mph 60% 0.00 in WeatherDisplay:10.37 W/m2 CLR
05:29 37.5 °F 24.9 °F 29.69 in West 4.6 mph 4.6 mph 60% 0.00 in WeatherDisplay:10.37 W/m2 CLR
05:34 37.4 °F 24.0 °F 29.69 in North 6.0 mph 6.0 mph 58% 0.00 in WeatherDisplay:10.37 W/m2 CLR
05:39 37.5 °F 24.1 °F 29.69 in NNW 4.6 mph 4.6 mph 58% 0.00 in WeatherDisplay:10.37 W/m2 CLR
05:44 37.5 °F 23.6 °F 29.69 in NNW 4.6 mph 4.6 mph 57% 0.00 in WeatherDisplay:10.37 W/m2 CLR
05:49 37.5 °F 23.2 °F 29.70 in North 2.3 mph 2.3 mph 56% 0.00 in WeatherDisplay:10.37 W/m2 CLR
05:54 37.5 °F 22.8 °F 29.70 in North 3.5 mph 3.5 mph 55% 0.00 in WeatherDisplay:10.37 W/m2 CLR
05:59 37.5 °F 22.8 °F 29.70 in NNW 4.6 mph 4.6 mph 55% 0.00 in WeatherDisplay:10.37 W/m2 CLR
06:04 37.5 °F 22.8 °F 29.72 in North 10.4 mph 10.4 mph 55% 0.00 in WeatherDisplay:10.37 W/m2 CLR
06:09 37.4 °F 22.7 °F 29.72 in NW 3.5 mph 3.5 mph 55% 0.00 in WeatherDisplay:10.37 W/m2 CLR
06:14 37.2 °F 22.9 °F 29.72 in NNW 4.6 mph 4.6 mph 56% 0.00 in WeatherDisplay:10.37 W/m2 CLR
06:19 37.0 °F 22.7 °F 29.72 in North 4.6 mph 4.6 mph 56% 0.00 in WeatherDisplay:10.37 W/m2 CLR
06:24 37.0 °F 22.7 °F 29.72 in NNW 7.0 mph 7.0 mph 56% 0.00 in WeatherDisplay:10.37 W/m2 CLR
06:29 37.1 °F 22.8 °F 29.73 in NNW 2.0 mph 2.0 mph 56% 0.00 in WeatherDisplay:10.37 W/m2 CLR
06:34 37.1 °F 22.4 °F 29.73 in North 5.8 mph 5.8 mph 55% 0.00 in WeatherDisplay:10.37 W/m2 CLR
06:39 37.2 °F 22.5 °F 29.73 in NW 3.5 mph 3.5 mph 55% 0.00 in WeatherDisplay:10.37 W/m2 CLR
06:44 37.1 °F 22.4 °F 29.73 in NNW 3.5 mph 3.5 mph 55% 0.00 in WeatherDisplay:10.37 W/m2 CLR
06:49 37.1 °F 22.4 °F 29.73 in North 5.8 mph 5.8 mph 55% 0.00 in WeatherDisplay:10.37 W/m2 CLR
06:54 37.3 °F 22.6 °F 29.73 in NW 3.5 mph 3.5 mph 55% 0.00 in WeatherDisplay:10.37 W/m2 CLR
06:59 37.4 °F 22.3 °F 29.74 in NNW 6.9 mph 6.9 mph 54% 0.00 in WeatherDisplay:10.37 W/m2 CLR
07:04 37.4 °F 22.3 °F 29.76 in NW 3.5 mph 3.5 mph 54% 0.00 in WeatherDisplay:10.37 W/m2 CLR
07:09 37.4 °F 21.8 °F 29.76 in NNW 1.2 mph 1.2 mph 53% 0.00 in WeatherDisplay:10.37 W/m2 CLR
07:14 37.5 °F 21.9 °F 29.76 in WNW 5.8 mph 5.8 mph 53% 0.00 in WeatherDisplay:10.37 W/m2 CLR
07:19 38.0 °F 21.9 °F 29.76 in NNW 3.5 mph 3.5 mph 52% 0.00 in WeatherDisplay:10.37 W/m2 CLR
07:24 38.3 °F 21.7 °F 29.76 in NW 9.2 mph 9.2 mph 51% 0.00 in WeatherDisplay:10.37 W/m2 CLR
07:29 38.8 °F 21.7 °F 29.76 in WSW 5.8 mph 5.8 mph 50% 0.00 in WeatherDisplay:10.37 W/m2 CLR
07:34 39.2 °F 21.6 °F 29.76 in NW 8.0 mph 8.0 mph 49% 0.00 in WeatherDisplay:10.37 W/m2 CLR
07:39 39.6 °F 22.5 °F 29.77 in West 4.0 mph 4.0 mph 50% 0.00 in WeatherDisplay:10.37 W/m2 CLR
07:44 39.9 °F 22.7 °F 29.77 in North 3.5 mph 3.5 mph 50% 0.00 in WeatherDisplay:10.37 W/m2 CLR
07:49 40.2 °F 24.0 °F 29.78 in West 4.6 mph 4.6 mph 52% 0.00 in WeatherDisplay:10.37 W/m2 CLR
07:50 40.2 °F 24.0 °F 29.78 in West 3.5 mph 3.5 mph 52% 0.00 in WeatherDisplay:10.37 W/m2 CLR
07:55 40.3 °F 25.8 °F 29.78 in West 3.5 mph 3.5 mph 56% 0.00 in WeatherDisplay:10.37 W/m2 CLR
08:00 40.2 °F 26.2 °F 29.79 in West 3.5 mph 3.5 mph 57% 0.00 in WeatherDisplay:10.37 W/m2 CLR
08:05 40.2 °F 26.6 °F 29.78 in West 2.3 mph 2.3 mph 58% 0.00 in WeatherDisplay:10.37 W/m2 CLR
08:10 40.4 °F 26.8 °F 29.78 in WSW 1.2 mph 1.2 mph 58% 0.00 in WeatherDisplay:10.37 W/m2 CLR
08:15 40.6 °F 27.0 °F 29.77 in WSW 3.5 mph 3.5 mph 58% 0.00 in WeatherDisplay:10.37 W/m2 CLR
08:20 41.1 °F 27.0 °F 29.77 in West 2.3 mph 2.3 mph 57% 0.00 in WeatherDisplay:10.37 W/m2 CLR
08:25 41.5 °F 27.8 °F 29.77 in SW 1.2 mph   58% 0.00 in WeatherDisplay:10.37 W/m2 CLR
08:30 41.9 °F 27.8 °F 29.77 in SW 1.2 mph   57% 0.00 in WeatherDisplay:10.37 W/m2 CLR
08:35 42.1 °F 27.1 °F 29.78 in West 5.8 mph 5.8 mph 55% 0.00 in WeatherDisplay:10.37 W/m2 CLR
08:40 42.3 °F 27.7 °F 29.77 in WNW 4.6 mph 4.6 mph 56% 0.00 in WeatherDisplay:10.37 W/m2 CLR
08:45 42.6 °F 28.0 °F 29.76 in SW 4.6 mph 4.6 mph 56% 0.00 in WeatherDisplay:10.37 W/m2 CLR
08:50 42.5 °F 27.9 °F 29.76 in SW 6.9 mph 6.9 mph 56% 0.00 in WeatherDisplay:10.37 W/m2 CLR
08:55 42.1 °F 27.1 °F 29.78 in SSW 10.4 mph 10.4 mph 55% 0.00 in WeatherDisplay:10.37 W/m2 CLR
09:00 41.9 °F 27.8 °F 29.78 in SSW 5.0 mph 5.0 mph 57% 0.00 in WeatherDisplay:10.37 W/m2 CLR
09:05 42.2 °F 28.0 °F 29.77 in SW 1.0 mph   57% 0.00 in WeatherDisplay:10.37 W/m2 CLR
09:10 42.9 °F 27.4 °F 29.76 in SSW 4.6 mph 4.6 mph 54% 0.00 in WeatherDisplay:10.37 W/m2 CLR
09:15 43.6 °F 27.6 °F 29.77 in SSW 3.5 mph 3.5 mph 53% 0.00 in WeatherDisplay:10.37 W/m2 CLR
09:20 44.3 °F 27.8 °F 29.77 in SSW 1.2 mph 1.2 mph 52% 0.00 in WeatherDisplay:10.37 W/m2 CLR
09:25 45.0 °F 24.4 °F 29.76 in West 2.3 mph 2.3 mph 44% 0.00 in WeatherDisplay:10.37 W/m2 CLR
09:30 45.9 °F 22.9 °F 29.76 in West 3.5 mph 3.5 mph 40% 0.00 in WeatherDisplay:10.37 W/m2 CLR
09:35 46.9 °F 23.2 °F 29.75 in NW 5.8 mph 5.8 mph 39% 0.00 in WeatherDisplay:10.37 W/m2 CLR
09:40 47.6 °F 21.9 °F 29.75 in West 5.0 mph 5.0 mph 36% 0.00 in WeatherDisplay:10.37 W/m2 CLR
09:45 48.1 °F 21.0 °F 29.75 in North 11.5 mph 11.5 mph 34% 0.00 in WeatherDisplay:10.37 W/m2 CLR
09:50 48.4 °F 20.6 °F 29.74 in South 12.7 mph 12.7 mph 33% 0.00 in WeatherDisplay:10.37 W/m2 CLR
09:55 48.5 °F 20.7 °F 29.73 in North 10.4 mph 10.4 mph 33% 0.00 in WeatherDisplay:10.37 W/m2 CLR
10:00 48.4 °F 19.9 °F 29.75 in North 12.7 mph 12.7 mph 32% 0.00 in WeatherDisplay:10.37 W/m2 CLR
10:05 48.5 °F 19.9 °F 29.75 in SSW 11.5 mph 11.5 mph 32% 0.00 in WeatherDisplay:10.37 W/m2 CLR
10:10 48.7 °F 20.1 °F 29.75 in WNW 7.0 mph 7.0 mph 32% 0.00 in WeatherDisplay:10.37 W/m2 CLR
10:15 48.8 °F 20.2 °F 29.75 in North 9.2 mph 9.2 mph 32% 0.00 in WeatherDisplay:10.37 W/m2 CLR
10:20 48.9 °F 20.3 °F 29.75 in North 11.5 mph 11.5 mph 32% 0.00 in WeatherDisplay:10.37 W/m2 CLR
10:25 48.8 °F 19.5 °F 29.75 in NNW 16.1 mph 16.1 mph 31% 0.00 in WeatherDisplay:10.37 W/m2 CLR
10:30 48.4 °F 19.9 °F 29.76 in North 19.6 mph 19.6 mph 32% 0.00 in WeatherDisplay:10.37 W/m2 CLR
10:35 48.5 °F 19.9 °F 29.76 in WSW 11.5 mph 11.5 mph 32% 0.00 in WeatherDisplay:10.37 W/m2 CLR
10:40 49.0 °F 20.4 °F 29.76 in WNW 9.0 mph 9.0 mph 32% 0.00 in WeatherDisplay:10.37 W/m2 CLR
10:45 49.3 °F 19.9 °F 29.76 in South 5.0 mph 5.0 mph 31% 0.00 in WeatherDisplay:10.37 W/m2 CLR
10:50 49.1 °F 19.0 °F 29.76 in North 13.8 mph 13.8 mph 30% 0.00 in WeatherDisplay:10.37 W/m2 CLR
10:55 48.1 °F 18.8 °F 29.76 in NNE 11.5 mph 11.5 mph 31% 0.00 in WeatherDisplay:10.37 W/m2 CLR
11:00 47.6 °F 18.4 °F 29.76 in North 8.1 mph 8.1 mph 31% 0.00 in WeatherDisplay:10.37 W/m2 CLR
11:05 47.5 °F 18.3 °F 29.76 in East 10.4 mph 10.4 mph 31% 0.00 in WeatherDisplay:10.37 W/m2 CLR
11:10 47.3 °F 18.1 °F 29.76 in WNW 10.4 mph 10.4 mph 31% 0.00 in WeatherDisplay:10.37 W/m2 CLR
11:15 46.9 °F 17.8 °F 29.76 in NNE 3.5 mph 3.6 mph 31% 0.00 in WeatherDisplay:10.37 W/m2 CLR
11:20 46.3 °F 17.3 °F 29.78 in North 12.7 mph 12.7 mph 31% 0.00 in WeatherDisplay:10.37 W/m2 CLR
11:25 46.1 °F 17.1 °F 29.77 in North 13.8 mph 13.8 mph 31% 0.00 in WeatherDisplay:10.37 W/m2 CLR
11:30 46.2 °F 17.2 °F 29.78 in WNW 6.9 mph 6.9 mph 31% 0.00 in WeatherDisplay:10.37 W/m2 CLR
11:35 46.1 °F 17.1 °F 29.78 in NW 5.8 mph 5.8 mph 31% 0.00 in WeatherDisplay:10.37 W/m2 CLR
11:40 46.1 °F 17.8 °F 29.78 in North 11.5 mph 11.5 mph 32% 0.00 in WeatherDisplay:10.37 W/m2 CLR
11:45 46.4 °F 17.4 °F 29.78 in North 5.8 mph 5.8 mph 31% 0.00 in WeatherDisplay:10.37 W/m2 CLR
11:50 46.4 °F 17.4 °F 29.78 in WNW 10.4 mph 10.4 mph 31% 0.00 in WeatherDisplay:10.37 W/m2 CLR
11:55 46.3 °F 17.3 °F 29.78 in North 11.5 mph 11.5 mph 31% 0.00 in WeatherDisplay:10.37 W/m2 CLR
12:00 46.6 °F 16.8 °F 29.77 in South 19.6 mph 19.6 mph 30% 0.00 in WeatherDisplay:10.37 W/m2 CLR
12:05 46.7 °F 16.9 °F 29.76 in WNW 18.4 mph 18.4 mph 30% 0.00 in WeatherDisplay:10.37 W/m2 CLR
12:10 46.7 °F 17.6 °F 29.77 in North 13.0 mph 13.0 mph 31% 0.00 in WeatherDisplay:10.37 W/m2 CLR
12:15 46.9 °F 17.8 °F 29.78 in SSE 10.4 mph 10.4 mph 31% 0.00 in WeatherDisplay:10.37 W/m2 CLR
12:20 46.6 °F 17.5 °F 29.78 in NNW 11.5 mph 11.5 mph 31% 0.00 in WeatherDisplay:10.37 W/m2 CLR
12:25 46.0 °F 17.0 °F 29.79 in North 12.7 mph 12.7 mph 31% 0.00 in WeatherDisplay:10.37 W/m2 CLR
12:30 45.7 °F 17.5 °F 29.78 in North 15.0 mph 15.0 mph 32% 0.00 in WeatherDisplay:10.37 W/m2 CLR
12:35 45.5 °F 17.3 °F 29.78 in NNE 10.4 mph 10.4 mph 32% 0.00 in WeatherDisplay:10.37 W/m2 CLR
12:40 45.3 °F 17.1 °F 29.77 in ENE 8.1 mph 8.1 mph 32% 0.00 in WeatherDisplay:10.37 W/m2 CLR
12:45 45.1 °F 17.0 °F 29.77 in NNW 15.0 mph 15.0 mph 32% 0.00 in WeatherDisplay:10.37 W/m2 CLR
12:50 45.1 °F 17.0 °F 29.78 in NNE 9.2 mph 9.2 mph 32% 0.00 in WeatherDisplay:10.37 W/m2 CLR
12:55 45.1 °F 17.0 °F 29.78 in WNW 5.8 mph 5.8 mph 32% 0.00 in WeatherDisplay:10.37 W/m2 CLR
13:00 45.0 °F 16.9 °F 29.78 in NNW 10.4 mph 10.4 mph 32% 0.00 in WeatherDisplay:10.37 W/m2 CLR
13:05 45.0 °F 16.9 °F 29.78 in NNE 16.1 mph 16.1 mph 32% 0.00 in WeatherDisplay:10.37 W/m2 CLR
13:10 45.2 °F 17.0 °F 29.78 in SSW 13.8 mph 13.8 mph 32% 0.00 in WeatherDisplay:10.37 W/m2 CLR
13:15 45.3 °F 17.1 °F 29.79 in North 12.7 mph 12.7 mph 32% 0.00 in WeatherDisplay:10.37 W/m2 CLR
13:20 45.3 °F 16.4 °F 29.79 in NNE 12.7 mph 12.7 mph 31% 0.00 in WeatherDisplay:10.37 W/m2 CLR
13:25 45.3 °F 15.6 °F 29.80 in NNE 13.8 mph 13.8 mph 30% 0.00 in WeatherDisplay:10.37 W/m2 CLR
13:30 45.4 °F 16.5 °F 29.80 in NNW 12.7 mph 12.7 mph 31% 0.00 in WeatherDisplay:10.37 W/m2 CLR
13:35 45.4 °F 15.7 °F 29.79 in NNE 13.8 mph 13.8 mph 30% 0.00 in WeatherDisplay:10.37 W/m2 CLR
13:40 45.5 °F 16.6 °F 29.78 in NNE 14.0 mph 14.0 mph 31% 0.00 in WeatherDisplay:10.37 W/m2 CLR
13:45 45.6 °F 15.9 °F 29.78 in NNW 18.4 mph 18.4 mph 30% 0.00 in WeatherDisplay:10.37 W/m2 CLR
13:50 45.6 °F 16.7 °F 29.78 in NNW 10.4 mph 10.4 mph 31% 0.00 in WeatherDisplay:10.37 W/m2 CLR
13:55 45.9 °F 16.9 °F 29.79 in NNE 10.4 mph 10.4 mph 31% 0.00 in WeatherDisplay:10.37 W/m2 CLR
14:00 46.0 °F 17.0 °F 29.79 in NW 13.0 mph 13.0 mph 31% 0.00 in WeatherDisplay:10.37 W/m2 CLR
14:05 46.0 °F 16.3 °F 29.81 in NNW 13.8 mph 13.8 mph 30% 0.00 in WeatherDisplay:10.37 W/m2 CLR
14:10 45.9 °F 16.9 °F 29.82 in ESE 11.5 mph 11.5 mph 31% 0.00 in WeatherDisplay:10.37 W/m2 CLR
14:16 45.8 °F 16.8 °F 29.81 in North 10.4 mph 10.4 mph 31% 0.00 in WeatherDisplay:10.37 W/m2 CLR
14:21 45.6 °F 16.7 °F 29.82 in NE 15.0 mph 15.0 mph 31% 0.00 in WeatherDisplay:10.37 W/m2 CLR
14:26 45.5 °F 17.3 °F 29.81 in North 12.7 mph 12.7 mph 32% 0.00 in WeatherDisplay:10.37 W/m2 CLR
14:31 45.2 °F 17.0 °F 29.83 in East 16.1 mph 16.1 mph 32% 0.00 in WeatherDisplay:10.37 W/m2 CLR
14:36 45.0 °F 16.9 °F 29.83 in North 11.5 mph 11.5 mph 32% 0.00 in WeatherDisplay:10.37 W/m2 CLR
14:41 45.0 °F 17.6 °F 29.84 in NNE 15.0 mph 15.0 mph 33% 0.00 in WeatherDisplay:10.37 W/m2 CLR
14:46 45.0 °F 16.9 °F 29.84 in NW 13.8 mph 13.8 mph 32% 0.00 in WeatherDisplay:10.37 W/m2 CLR
14:51 44.9 °F 17.5 °F 29.84 in North 15.0 mph 15.0 mph 33% 0.00 in WeatherDisplay:10.37 W/m2 CLR
14:56 44.8 °F 17.4 °F 29.84 in NNW 18.4 mph 18.4 mph 33% 0.00 in WeatherDisplay:10.37 W/m2 CLR
15:01 44.9 °F 17.5 °F 29.85 in NNE 12.7 mph 12.7 mph 33% 0.00 in WeatherDisplay:10.37 W/m2 CLR
15:06 44.8 °F 18.1 °F 29.86 in NNW 11.5 mph 11.5 mph 34% 0.00 in WeatherDisplay:10.37 W/m2 CLR
15:11 44.7 °F 18.0 °F 29.88 in North 18.4 mph 18.4 mph 34% 0.00 in WeatherDisplay:10.37 W/m2 CLR
15:16 44.6 °F 17.9 °F 29.88 in West 12.7 mph 12.7 mph 34% 0.00 in WeatherDisplay:10.37 W/m2 CLR
15:21 44.4 °F 17.1 °F 29.88 in North 16.1 mph 16.1 mph 33% 0.00 in WeatherDisplay:10.37 W/m2 CLR
15:26 44.3 °F 18.3 °F 29.88 in NNE 9.2 mph 9.2 mph 35% 0.00 in WeatherDisplay:10.37 W/m2 CLR
15:31 44.1 °F 18.2 °F 29.88 in North 17.3 mph 17.3 mph 35% 0.00 in WeatherDisplay:10.37 W/m2 CLR
15:36 44.1 °F 18.2 °F 29.88 in NNE 11.5 mph 11.5 mph 35% 0.00 in WeatherDisplay:10.37 W/m2 CLR
15:41 44.0 °F 18.1 °F 29.89 in WNW 18.4 mph 18.4 mph 35% 0.00 in WeatherDisplay:10.37 W/m2 CLR
15:46 43.8 °F 17.2 °F 29.90 in NNW 12.7 mph 12.7 mph 34% 0.00 in WeatherDisplay:10.37 W/m2 CLR
15:51 43.8 °F 17.9 °F 29.90 in NNE 13.8 mph 13.8 mph 35% 0.00 in WeatherDisplay:10.37 W/m2 CLR
15:56 43.7 °F 17.8 °F 29.90 in North 11.5 mph 11.5 mph 35% 0.00 in WeatherDisplay:10.37 W/m2 CLR
16:01 43.6 °F 17.7 °F 29.90 in NW 11.5 mph 11.5 mph 35% 0.00 in WeatherDisplay:10.37 W/m2 CLR
16:06 43.4 °F 18.2 °F 29.90 in NW 15.0 mph 15.0 mph 36% 0.00 in WeatherDisplay:10.37 W/m2 CLR
16:11 43.4 °F 18.2 °F 29.91 in North 11.5 mph 11.5 mph 36% 0.00 in WeatherDisplay:10.37 W/m2 CLR
16:16 43.4 °F 18.2 °F 29.92 in North 10.4 mph 10.4 mph 36% 0.00 in WeatherDisplay:10.37 W/m2 CLR
16:21 43.3 °F 17.4 °F 29.92 in NNE 11.5 mph 11.5 mph 35% 0.00 in WeatherDisplay:10.37 W/m2 CLR
16:26 43.3 °F 17.4 °F 29.92 in WNW 10.4 mph 10.4 mph 35% 0.00 in WeatherDisplay:10.37 W/m2 CLR
16:31 43.2 °F 18.0 °F 29.93 in NNE 6.0 mph 6.0 mph 36% 0.00 in WeatherDisplay:10.37 W/m2 CLR
16:36 43.3 °F 16.8 °F 29.93 in NW 12.7 mph 12.7 mph 34% 0.00 in WeatherDisplay:10.37 W/m2 CLR
16:41 43.5 °F 17.6 °F 29.93 in NW 12.7 mph 12.7 mph 35% 0.00 in WeatherDisplay:10.37 W/m2 CLR
16:46 43.7 °F 17.1 °F 29.93 in NNW 11.5 mph 11.5 mph 34% 0.00 in WeatherDisplay:10.37 W/m2 CLR
16:51 43.8 °F 17.2 °F 29.93 in NNE 11.5 mph 11.5 mph 34% 0.00 in WeatherDisplay:10.37 W/m2 CLR
16:56 43.7 °F 17.1 °F 29.94 in NNE 10.4 mph 10.4 mph 34% 0.00 in WeatherDisplay:10.37 W/m2 CLR
17:01 43.5 °F 16.3 °F 29.93 in West 10.4 mph 10.4 mph 33% 0.00 in WeatherDisplay:10.37 W/m2 CLR
17:06 43.3 °F 16.8 °F 29.95 in North 7.0 mph 7.0 mph 34% 0.00 in WeatherDisplay:10.37 W/m2 CLR
17:11 43.2 °F 16.0 °F 29.95 in West 3.5 mph 3.5 mph 33% 0.00 in WeatherDisplay:10.37 W/m2 CLR
17:16 43.0 °F 15.8 °F 29.96 in NNW 13.0 mph 13.0 mph 33% 0.00 in WeatherDisplay:10.37 W/m2 CLR
17:21 42.9 °F 15.7 °F 29.96 in NNE 9.2 mph 9.2 mph 33% 0.00 in WeatherDisplay:10.37 W/m2 CLR
17:26 42.8 °F 16.3 °F 29.97 in North 5.8 mph 5.8 mph 34% 0.00 in WeatherDisplay:10.37 W/m2 CLR
17:31 42.6 °F 16.2 °F 29.97 in North 3.5 mph   34% 0.00 in WeatherDisplay:10.37 W/m2 CLR
17:36 42.4 °F 16.6 °F 29.98 in North 11.5 mph 11.5 mph 35% 0.00 in WeatherDisplay:10.37 W/m2 CLR
17:41 42.1 °F 17.0 °F 29.98 in NNW 10.4 mph 10.4 mph 36% 0.00 in WeatherDisplay:10.37 W/m2 CLR
17:46 41.6 °F 17.2 °F 29.99 in NNW 5.8 mph 5.8 mph 37% 0.00 in WeatherDisplay:10.37 W/m2 CLR
17:51 41.3 °F 16.9 °F 30.00 in North 11.5 mph 11.5 mph 37% 0.00 in WeatherDisplay:10.37 W/m2 CLR
17:56 41.1 °F 17.4 °F 30.02 in North 13.8 mph 13.8 mph 38% 0.00 in WeatherDisplay:10.37 W/m2 CLR
18:01 39.7 °F 19.0 °F 30.04 in NE 9.2 mph 9.2 mph 43% 0.00 in WeatherDisplay:10.37 W/m2 CLR
18:06 37.3 °F 18.9 °F 30.06 in ENE 10.4 mph 10.4 mph 47% 0.00 in WeatherDisplay:10.37 W/m2 CLR
18:11 36.0 °F 18.7 °F 30.07 in ENE 9.2 mph 9.2 mph 49% 0.00 in WeatherDisplay:10.37 W/m2 CLR
18:16 35.3 °F 19.0 °F 30.08 in East 11.5 mph 11.5 mph 51% 0.00 in WeatherDisplay:10.37 W/m2 CLR
18:21 34.8 °F 18.9 °F 30.09 in East 9.2 mph 9.2 mph 52% 0.00 in WeatherDisplay:10.37 W/m2 CLR
18:26 34.4 °F 19.5 °F 30.10 in East 13.0 mph 13.0 mph 54% 0.00 in WeatherDisplay:10.37 W/m2 CLR
18:31 33.4 °F 19.4 °F 30.11 in ENE 15.0 mph 15.0 mph 56% 0.00 in WeatherDisplay:10.37 W/m2 CLR
18:36 32.6 °F 19.0 °F 30.12 in ENE 17.3 mph 17.3 mph 57% 0.00 in WeatherDisplay:10.37 W/m2 CLR
18:41 32.1 °F 19.0 °F 30.14 in ENE 16.1 mph 16.1 mph 58% 0.00 in WeatherDisplay:10.37 W/m2 CLR
18:46 31.7 °F 18.6 °F 30.14 in ENE 16.1 mph 16.1 mph 58% 0.00 in WeatherDisplay:10.37 W/m2 CLR
18:51 31.4 °F 18.7 °F 30.15 in East 10.4 mph 10.4 mph 59% 0.00 in WeatherDisplay:10.37 W/m2 CLR
18:56 31.1 °F 18.8 °F 30.16 in ENE 13.8 mph 13.8 mph 60% 0.00 in WeatherDisplay:10.37 W/m2 CLR
19:01 30.5 °F 19.0 °F 30.16 in ENE 19.6 mph 19.6 mph 62% 0.00 in WeatherDisplay:10.37 W/m2 CLR
19:06 30.0 °F 18.9 °F 30.16 in ENE 9.2 mph 9.2 mph 63% 0.00 in WeatherDisplay:10.37 W/m2 CLR
19:11 29.4 °F 18.0 °F 30.16 in NE 13.8 mph 13.8 mph 62% 0.00 in WeatherDisplay:10.37 W/m2 CLR
19:16 28.9 °F 17.9 °F 30.18 in ENE 16.1 mph 16.1 mph 63% 0.00 in WeatherDisplay:10.37 W/m2 CLR
19:21 28.7 °F 17.7 °F 30.19 in NE 12.0 mph 12.0 mph 63% 0.00 in WeatherDisplay:10.37 W/m2 CLR
19:27 28.3 °F 17.7 °F 30.19 in NNW 13.8 mph 13.8 mph 64% 0.00 in WeatherDisplay:10.37 W/m2 CLR
19:32 28.1 °F 17.5 °F 30.20 in NE 12.7 mph 12.7 mph 64% 0.00 in WeatherDisplay:10.37 W/m2 CLR
19:37 27.9 °F 16.9 °F 30.21 in ENE 11.5 mph 11.5 mph 63% 0.00 in WeatherDisplay:10.37 W/m2 CLR
19:42 27.5 °F 16.5 °F 30.22 in NE 13.8 mph 13.8 mph 63% 0.00 in WeatherDisplay:10.37 W/m2 CLR
19:47 27.2 °F 16.3 °F 30.24 in ENE 5.8 mph 5.8 mph 63% 0.00 in WeatherDisplay:10.37 W/m2 CLR
19:52 27.0 °F 16.1 °F 30.24 in NNE 9.2 mph 9.2 mph 63% 0.00 in WeatherDisplay:10.37 W/m2 CLR
19:57 26.7 °F 15.8 °F 30.24 in NE 10.4 mph 10.4 mph 63% 0.00 in WeatherDisplay:10.37 W/m2 CLR
20:02 26.5 °F 16.0 °F 30.23 in NNE 11.5 mph 11.5 mph 64% 0.00 in WeatherDisplay:10.37 W/m2 CLR
20:07 26.4 °F 15.9 °F 30.24 in NE 9.2 mph 9.2 mph 64% 0.00 in WeatherDisplay:10.37 W/m2 CLR
20:12 26.3 °F 15.4 °F 30.25 in NNE 11.5 mph 11.5 mph 63% 0.00 in WeatherDisplay:10.37 W/m2 CLR
20:17 26.3 °F 15.4 °F 30.26 in North 9.2 mph 9.2 mph 63% 0.00 in WeatherDisplay:10.37 W/m2 CLR
20:22 26.2 °F 15.3 °F 30.27 in ENE 5.8 mph 5.8 mph 63% 0.00 in WeatherDisplay:10.37 W/m2 CLR
20:27 26.1 °F 15.2 °F 30.27 in NE 5.8 mph 5.8 mph 63% 0.00 in WeatherDisplay:10.37 W/m2 CLR
20:32 26.0 °F 15.1 °F 30.28 in ENE 5.0 mph 5.0 mph 63% 0.00 in WeatherDisplay:10.37 W/m2 CLR
20:37 26.0 °F 15.1 °F 30.28 in NNE 4.6 mph 4.6 mph 63% 0.00 in WeatherDisplay:10.37 W/m2 CLR
20:42 25.9 °F 15.0 °F 30.28 in NNE 3.5 mph 3.5 mph 63% 0.00 in WeatherDisplay:10.37 W/m2 CLR
20:47 25.9 °F 15.0 °F 30.29 in NE 3.5 mph 3.5 mph 63% 0.00 in WeatherDisplay:10.37 W/m2 CLR
20:52 25.9 °F 14.3 °F 30.30 in NNW 4.6 mph 4.6 mph 61% 0.00 in WeatherDisplay:10.37 W/m2 CLR
20:57 25.8 °F 13.8 °F 30.31 in NNW 4.6 mph 4.6 mph 60% 0.00 in WeatherDisplay:10.37 W/m2 CLR
21:02 25.7 °F 13.7 °F 30.27 in NNE 3.5 mph 3.5 mph 60% 0.00 in WeatherDisplay:10.37 W/m2 CLR
21:07 25.7 °F 13.7 °F 30.27 in North 4.6 mph 4.6 mph 60% 0.00 in WeatherDisplay:10.37 W/m2 CLR
21:12 25.6 °F 13.6 °F 30.29 in NNE 2.3 mph 2.3 mph 60% 0.00 in WeatherDisplay:10.37 W/m2 CLR
21:17 25.6 °F 13.6 °F 30.29 in North 5.8 mph 5.8 mph 60% 0.00 in WeatherDisplay:10.37 W/m2 CLR
21:22 25.6 °F 13.6 °F 30.29 in NNE 8.1 mph 8.1 mph 60% 0.00 in WeatherDisplay:10.37 W/m2 CLR
21:27 25.5 °F 13.5 °F 30.29 in North 3.5 mph 3.5 mph 60% 0.00 in WeatherDisplay:10.37 W/m2 CLR
21:32 25.4 °F 13.4 °F 30.31 in North 3.5 mph 3.5 mph 60% 0.00 in WeatherDisplay:10.37 W/m2 CLR
21:37 25.3 °F 13.3 °F 30.31 in NNE 3.5 mph 3.5 mph 60% 0.00 in WeatherDisplay:10.37 W/m2 CLR
21:42 25.2 °F 13.2 °F 30.32 in North 11.5 mph 11.5 mph 60% 0.00 in WeatherDisplay:10.37 W/m2 CLR
21:47 25.1 °F 13.2 °F 30.32 in North 4.6 mph 4.6 mph 60% 0.00 in WeatherDisplay:10.37 W/m2 CLR
21:52 25.0 °F 13.4 °F 30.32 in NNE 3.0 mph 3.0 mph 61% 0.00 in WeatherDisplay:10.37 W/m2 CLR
21:57 24.9 °F 13.3 °F 30.31 in NNE 3.5 mph 3.5 mph 61% 0.00 in WeatherDisplay:10.37 W/m2 CLR
22:02 24.8 °F 13.2 °F 30.32 in NNE 3.5 mph 3.5 mph 61% 0.00 in WeatherDisplay:10.37 W/m2 CLR
22:07 24.8 °F 13.2 °F 30.32 in NNE 2.3 mph 2.3 mph 61% 0.00 in WeatherDisplay:10.37 W/m2 CLR
22:12 24.7 °F 12.8 °F 30.32 in NNE 3.5 mph 3.5 mph 60% 0.00 in WeatherDisplay:10.37 W/m2 CLR
22:17 24.5 °F 13.0 °F 30.32 in NNE 2.0 mph 2.0 mph 61% 0.00 in WeatherDisplay:10.37 W/m2 CLR
22:22 24.4 °F 12.9 °F 30.32 in NNE 4.0 mph 4.0 mph 61% 0.00 in WeatherDisplay:10.37 W/m2 CLR
22:27 24.3 °F 12.4 °F 30.32 in North 4.6 mph 4.6 mph 60% 0.00 in WeatherDisplay:10.37 W/m2 CLR
22:32 24.2 °F 12.7 °F 30.32 in NNE 3.5 mph 3.5 mph 61% 0.00 in WeatherDisplay:10.37 W/m2 CLR
22:37 24.1 °F 12.9 °F 30.32 in North 3.5 mph 3.5 mph 62% 0.00 in WeatherDisplay:10.37 W/m2 CLR
22:42 24.0 °F 12.5 °F 30.33 in NNE 2.3 mph 2.3 mph 61% 0.00 in WeatherDisplay:10.37 W/m2 CLR
22:47 23.9 °F 12.4 °F 30.33 in NE 3.5 mph 3.5 mph 61% 0.00 in WeatherDisplay:10.37 W/m2 CLR
22:52 23.8 °F 12.3 °F 30.33 in NE 4.0 mph 4.0 mph 61% 0.00 in WeatherDisplay:10.37 W/m2 CLR
22:57 23.6 °F 12.1 °F 30.33 in NNE 3.5 mph 3.5 mph 61% 0.00 in WeatherDisplay:10.37 W/m2 CLR
23:02 23.4 °F 11.9 °F 30.33 in NE 2.3 mph 2.3 mph 61% 0.00 in WeatherDisplay:10.37 W/m2 CLR
23:07 23.3 °F 11.8 °F 30.33 in NE 3.5 mph 3.5 mph 61% 0.00 in WeatherDisplay:10.37 W/m2 CLR
23:12 23.1 °F 11.6 °F 30.33 in NE 1.2 mph 1.2 mph 61% 0.00 in WeatherDisplay:10.37 W/m2 CLR
23:17 23.0 °F 11.5 °F 30.34 in North 3.5 mph 3.5 mph 61% 0.00 in WeatherDisplay:10.37 W/m2 CLR
23:22 22.9 °F 11.4 °F 30.34 in NNE 2.3 mph 2.3 mph 61% 0.00 in WeatherDisplay:10.37 W/m2 CLR
23:27 22.7 °F 11.6 °F 30.34 in North 1.2 mph 1.2 mph 62% 0.00 in WeatherDisplay:10.37 W/m2 CLR
23:32 22.6 °F 11.5 °F 30.34 in Calm     62% 0.00 in WeatherDisplay:10.37 W/m2 CLR
23:37 22.5 °F 11.4 °F 30.34 in NE 1.2 mph 1.2 mph 62% 0.00 in WeatherDisplay:10.37 W/m2 CLR
23:42 22.4 °F 11.7 °F 30.36 in NE 3.5 mph 3.5 mph 63% 0.00 in WeatherDisplay:10.37 W/m2 CLR
23:47 22.3 °F 11.6 °F 30.36 in NE 1.2 mph   63% 0.00 in WeatherDisplay:10.37 W/m2 CLR
23:52 22.1 °F 12.1 °F 30.35 in NE 1.2 mph   65% 0.00 in WeatherDisplay:10.37 W/m2 CLR
23:57 21.9 °F 12.3 °F 30.35 in Calm     66% 0.00 in WeatherDisplay:10.37 W/m2 CLR
Windsor Co Weather
Compliments of Weather Underground - 3 mb